Time;durP1;ratioP1;P1;durP2;ratioP2;P2;SDS_P1;SDS_P2;PMS_P1;PMS_P2;Temp;Humidity;BMP_temperature;BMP_pressure;BME280_temperature;BME280_humidity;BME280_pressure;Samples;Min_cycle;Max_cycle;Signal;HPM_P1;HPM_P2
2022/03/02 00:01:59;;;;;;;52.00;15.53;;;0.70;19.60;;;;;;5046697;28;20476;-62
2022/03/02 00:04:26;;;;;;;53.57;14.60;;;0.70;19.70;;;;;;5047452;28;20477;-62
2022/03/02 00:06:52;;;;;;;49.60;14.67;;;0.70;19.80;;;;;;5046657;28;20515;-62
2022/03/02 00:09:19;;;;;;;54.17;15.20;;;0.60;19.80;;;;;;5048063;28;20837;-63
2022/03/02 00:11:46;;;;;;;55.27;15.30;;;0.60;19.90;;;;;;5047467;28;20455;-63
2022/03/02 00:14:13;;;;;;;50.40;15.33;;;0.60;20.00;;;;;;5047904;28;20465;-62
2022/03/02 00:16:39;;;;;;;52.60;15.80;;;0.60;20.00;;;;;;5035755;28;20458;-63
2022/03/02 00:19:09;;;;;;;50.10;14.53;;;0.60;20.00;;;;;;5047015;28;20474;-62
2022/03/02 00:21:36;;;;;;;51.47;14.30;;;0.60;20.00;;;;;;5045911;28;20462;-62
2022/03/02 00:24:04;;;;;;;57.60;15.80;;;0.60;20.30;;;;;;5047226;28;20478;-63
2022/03/02 00:26:31;;;;;;;52.40;15.50;;;0.50;20.10;;;;;;5045532;28;20504;-61
2022/03/02 00:28:58;;;;;;;52.50;15.47;;;0.50;20.30;;;;;;5037174;28;20487;-63
2022/03/02 00:31:25;;;;;;;57.10;15.07;;;0.50;20.30;;;;;;5039620;28;20478;-63
2022/03/02 00:33:52;;;;;;;49.67;14.20;;;0.50;20.30;;;;;;5046707;28;20602;-62
2022/03/02 00:36:21;;;;;;;52.17;14.93;;;0.40;20.10;;;;;;5041729;28;20997;-62
2022/03/02 00:38:47;;;;;;;49.00;13.43;;;0.40;20.20;;;;;;5046144;28;20474;-62
2022/03/02 00:41:14;;;;;;;51.70;14.37;;;0.40;20.20;;;;;;5040124;28;20454;-62
2022/03/02 00:43:41;;;;;;;49.63;14.63;;;0.40;20.30;;;;;;5037074;28;20466;-62
2022/03/02 00:46:08;;;;;;;50.57;14.53;;;0.30;20.30;;;;;;5044408;28;20957;-62
2022/03/02 00:48:35;;;;;;;51.60;14.50;;;0.30;20.60;;;;;;5047815;28;20569;-62
2022/03/02 00:51:02;;;;;;;48.80;13.20;;;0.30;20.60;;;;;;5046270;28;20503;-62
2022/03/02 00:53:31;;;;;;;48.33;12.10;;;0.30;20.70;;;;;;5042714;28;21091;-61
2022/03/02 00:55:58;;;;;;;50.17;13.70;;;0.30;20.40;;;;;;5051529;28;20454;-62
2022/03/02 00:58:24;;;;;;;48.60;14.13;;;0.30;20.60;;;;;;5044344;28;20484;-62
2022/03/02 01:00:51;;;;;;;50.60;13.70;;;0.30;20.60;;;;;;5050823;28;20488;-63
2022/03/02 01:03:18;;;;;;;49.67;13.63;;;0.20;20.50;;;;;;5033894;28;20459;-63
2022/03/02 01:05:45;;;;;;;50.30;13.93;;;0.20;20.40;;;;;;5051891;28;20462;-62
2022/03/02 01:08:12;;;;;;;51.87;13.97;;;0.20;20.70;;;;;;5052709;28;20458;-62
2022/03/02 01:10:40;;;;;;;56.33;14.43;;;0.20;20.90;;;;;;5042630;28;20479;-62
2022/03/02 01:13:07;;;;;;;52.17;14.37;;;0.10;20.80;;;;;;5049392;28;20454;-62
2022/03/02 01:15:34;;;;;;;53.20;16.47;;;0.10;21.10;;;;;;5052241;28;20450;-60
2022/03/02 01:18:01;;;;;;;50.17;14.17;;;0.10;21.30;;;;;;5046183;28;20541;-62
2022/03/02 01:20:27;;;;;;;49.53;14.40;;;0.10;21.10;;;;;;5049543;28;20902;-62
2022/03/02 01:22:54;;;;;;;46.30;13.40;;;0.00;20.90;;;;;;5051388;28;20461;-62
2022/03/02 01:25:21;;;;;;;50.23;14.90;;;0.10;20.90;;;;;;5042578;28;20992;-60
2022/03/02 01:27:49;;;;;;;51.47;14.80;;;0.00;21.10;;;;;;5051085;28;20454;-62
2022/03/02 01:30:18;;;;;;;51.13;15.77;;;0.00;21.40;;;;;;5041547;28;20478;-62
2022/03/02 01:32:44;;;;;;;50.87;14.40;;;-0.10;21.90;;;;;;5051030;28;20467;-62
2022/03/02 01:35:12;;;;;;;48.23;14.10;;;-0.10;22.10;;;;;;5049405;28;20462;-62
2022/03/02 01:37:39;;;;;;;55.37;15.60;;;-0.20;21.80;;;;;;5051295;28;20468;-63
2022/03/02 01:40:09;;;;;;;51.87;15.53;;;-0.30;22.40;;;;;;5049325;28;20504;-63
2022/03/02 01:42:36;;;;;;;54.30;15.00;;;-0.30;22.40;;;;;;5050821;28;20523;-63
2022/03/02 01:45:05;;;;;;;50.83;14.40;;;-0.30;22.40;;;;;;5049931;28;20450;-62
2022/03/02 01:47:32;;;;;;;51.97;17.63;;;-0.30;22.40;;;;;;5049520;28;20458;-63
2022/03/02 01:50:00;;;;;;;52.37;15.97;;;-0.30;22.50;;;;;;5050583;28;20516;-63
2022/03/02 01:52:27;;;;;;;49.67;15.00;;;-0.30;22.50;;;;;;5049154;28;21171;-61
2022/03/02 01:54:54;;;;;;;49.20;15.63;;;-0.30;22.20;;;;;;5049719;28;20454;-62
2022/03/02 01:57:21;;;;;;;52.93;14.90;;;-0.30;22.40;;;;;;5048571;28;20449;-61
2022/03/02 01:59:47;;;;;;;50.20;15.07;;;-0.30;22.60;;;;;;5049329;28;20844;-62
2022/03/02 02:02:16;;;;;;;50.87;15.33;;;-0.30;22.60;;;;;;5049067;28;20476;-62
2022/03/02 02:04:43;;;;;;;50.63;14.70;;;-0.30;22.90;;;;;;5045168;28;20459;-61
2022/03/02 02:07:09;;;;;;;49.60;14.50;;;-0.30;23.30;;;;;;5050776;28;20457;-63
2022/03/02 02:09:36;;;;;;;49.67;14.10;;;-0.30;23.70;;;;;;5049731;28;20490;-62
2022/03/02 02:12:03;;;;;;;51.77;15.70;;;-0.30;24.10;;;;;;5049553;28;20457;-62
2022/03/02 02:14:30;;;;;;;49.97;13.90;;;-0.30;24.50;;;;;;5048877;28;20477;-63
2022/03/02 02:16:57;;;;;;;48.20;13.33;;;-0.30;24.30;;;;;;5037501;28;20447;-61
2022/03/02 02:19:26;;;;;;;48.13;12.87;;;-0.30;24.10;;;;;;5048284;28;20478;-62
2022/03/02 02:21:54;;;;;;;50.93;13.37;;;-0.40;24.10;;;;;;5050259;28;20550;-62
2022/03/02 02:24:20;;;;;;;49.70;15.17;;;-0.40;24.10;;;;;;5035001;28;20458;-61
2022/03/02 02:26:47;;;;;;;51.93;14.30;;;-0.40;23.80;;;;;;5049818;28;20461;-62
2022/03/02 02:29:15;;;;;;;51.90;15.13;;;-0.30;23.80;;;;;;5048743;28;20486;-63
2022/03/02 02:31:42;;;;;;;50.77;15.07;;;-0.30;24.00;;;;;;5047608;28;20486;-62
2022/03/02 02:34:09;;;;;;;51.30;14.83;;;-0.40;23.80;;;;;;5042163;28;20480;-62
2022/03/02 02:36:38;;;;;;;48.60;13.70;;;-0.40;24.10;;;;;;5051021;28;20462;-63
2022/03/02 02:39:06;;;;;;;53.43;16.07;;;-0.30;25.20;;;;;;5048456;28;20474;-62
2022/03/02 02:41:33;;;;;;;49.10;14.37;;;-0.30;24.80;;;;;;5049074;28;20975;-62
2022/03/02 02:44:00;;;;;;;48.27;13.90;;;-0.30;25.20;;;;;;5044458;28;20963;-63
2022/03/02 02:46:26;;;;;;;51.67;17.03;;;-0.30;25.20;;;;;;5047175;28;20461;-60
2022/03/02 02:48:53;;;;;;;53.67;14.77;;;-0.30;25.10;;;;;;5047620;28;20482;-61
2022/03/02 02:51:20;;;;;;;55.67;15.80;;;-0.30;25.50;;;;;;5043424;28;20462;-62
2022/03/02 02:53:47;;;;;;;49.87;15.13;;;-0.30;25.10;;;;;;5040159;28;20469;-61
2022/03/02 02:56:15;;;;;;;51.47;15.50;;;-0.30;25.30;;;;;;5047056;28;20634;-63
2022/03/02 02:58:42;;;;;;;53.33;15.50;;;-0.30;25.10;;;;;;5045378;28;21066;-61
2022/03/02 03:01:09;;;;;;;55.27;15.10;;;-0.30;25.00;;;;;;5047402;28;20998;-61
2022/03/02 03:03:35;;;;;;;50.47;14.57;;;-0.30;24.90;;;;;;5049579;28;20454;-62
2022/03/02 03:06:04;;;;;;;53.70;14.40;;;-0.30;24.90;;;;;;5046717;28;20454;-62
2022/03/02 03:08:30;;;;;;;52.27;14.47;;;-0.30;24.70;;;;;;5049839;28;20482;-62
2022/03/02 03:10:57;;;;;;;51.03;15.13;;;-0.30;25.00;;;;;;5047744;28;20501;-62
2022/03/02 03:13:25;;;;;;;49.67;15.03;;;-0.30;25.10;;;;;;5042926;28;20454;-62
2022/03/02 03:15:52;;;;;;;49.67;14.80;;;-0.30;25.00;;;;;;5044880;28;20523;-62
2022/03/02 03:18:19;;;;;;;49.50;14.43;;;-0.30;24.90;;;;;;5045663;28;20454;-62
2022/03/02 03:20:46;;;;;;;51.40;15.10;;;-0.30;24.80;;;;;;5048864;28;20533;-61
2022/03/02 03:23:13;;;;;;;51.63;15.30;;;-0.30;25.00;;;;;;5048883;28;20458;-62
2022/03/02 03:25:40;;;;;;;51.83;14.97;;;-0.20;24.80;;;;;;5048380;28;20987;-63
2022/03/02 03:28:07;;;;;;;50.83;15.70;;;-0.30;25.00;;;;;;5048705;28;20454;-63
2022/03/02 03:30:36;;;;;;;50.40;13.90;;;-0.30;25.00;;;;;;5046736;28;20485;-62
2022/03/02 03:33:04;;;;;;;51.53;14.40;;;-0.30;25.90;;;;;;5048675;28;20466;-63
2022/03/02 03:35:31;;;;;;;54.93;13.30;;;-0.40;25.90;;;;;;5036554;28;20455;-60
2022/03/02 03:37:59;;;;;;;51.03;14.07;;;-0.40;25.70;;;;;;5044073;28;20547;-63
2022/03/02 03:40:26;;;;;;;51.13;14.23;;;-0.40;25.70;;;;;;5043642;28;21015;-60
2022/03/02 03:42:54;;;;;;;49.90;14.00;;;-0.40;25.50;;;;;;5048366;28;20541;-63
2022/03/02 03:45:21;;;;;;;47.33;13.50;;;-0.50;25.80;;;;;;5046393;28;20485;-62
2022/03/02 03:47:49;;;;;;;53.50;13.50;;;-0.50;25.70;;;;;;5048327;28;20454;-62
2022/03/02 03:50:16;;;;;;;50.47;13.90;;;-0.50;25.60;;;;;;5047796;28;20574;-62
2022/03/02 03:52:44;;;;;;;54.10;13.77;;;-0.60;25.70;;;;;;5047778;28;20979;-62
2022/03/02 03:55:12;;;;;;;52.80;13.90;;;-0.60;25.80;;;;;;5047473;28;20458;-62
2022/03/02 03:57:39;;;;;;;52.87;14.67;;;-0.60;25.70;;;;;;5048382;28;20450;-62
2022/03/02 04:00:09;;;;;;;50.57;13.63;;;-0.60;25.50;;;;;;5045989;28;20536;-62
2022/03/02 04:02:36;;;;;;;52.23;14.07;;;-0.70;25.50;;;;;;5047394;28;20530;-61
2022/03/02 04:05:04;;;;;;;54.20;14.37;;;-0.70;25.40;;;;;;5048278;28;20458;-62
2022/03/02 04:07:31;;;;;;;51.70;13.90;;;-0.70;25.50;;;;;;5048659;28;20465;-62
2022/03/02 04:09:58;;;;;;;51.90;15.07;;;-0.80;25.40;;;;;;5042258;28;20494;-63
2022/03/02 04:12:25;;;;;;;52.83;15.00;;;-0.80;25.40;;;;;;5028188;28;20961;-62
2022/03/02 04:14:52;;;;;;;51.60;15.07;;;-0.80;25.30;;;;;;5033353;28;20471;-62
2022/03/02 04:17:18;;;;;;;49.53;12.73;;;-0.80;25.30;;;;;;5040453;28;20467;-61
2022/03/02 04:19:45;;;;;;;50.87;14.57;;;-0.80;25.20;;;;;;5028894;28;20486;-62
2022/03/02 04:22:13;;;;;;;55.97;15.17;;;-0.80;25.10;;;;;;5039921;28;20458;-63
2022/03/02 04:24:40;;;;;;;49.80;14.43;;;-0.80;25.30;;;;;;5048536;28;20457;-61
2022/03/02 04:27:07;;;;;;;49.63;14.23;;;-0.80;25.30;;;;;;5047165;28;20493;-64
2022/03/02 04:29:34;;;;;;;48.60;14.37;;;-0.70;25.50;;;;;;5062030;22;21666;-61
2022/03/02 04:32:01;;;;;;;51.23;13.50;;;-0.70;25.40;;;;;;5043853;28;20478;-60
2022/03/02 04:34:28;;;;;;;52.27;13.60;;;-0.80;25.30;;;;;;5046989;28;20472;-61
2022/03/02 04:36:55;;;;;;;50.20;14.40;;;-0.80;25.20;;;;;;5047205;28;20963;-60
2022/03/02 04:39:23;;;;;;;52.30;15.03;;;-0.80;25.10;;;;;;5047656;28;20513;-61
2022/03/02 04:41:49;;;;;;;49.87;15.13;;;-0.80;25.00;;;;;;5035062;28;20457;-62
2022/03/02 04:44:16;;;;;;;51.70;15.80;;;-0.80;25.00;;;;;;5027827;28;20486;-60
2022/03/02 04:46:48;;;;;;;52.07;15.47;;;-0.80;24.90;;;;;;5028300;28;20462;-61
2022/03/02 04:49:17;;;;;;;50.13;15.23;;;-0.80;25.10;;;;;;5029757;28;20459;-61
2022/03/02 04:51:45;;;;;;;51.63;15.40;;;-0.80;25.10;;;;;;5047511;28;20576;-61
2022/03/02 04:55:05;;;;;;;51.10;14.70;;;-0.80;25.20;;;;;;5046818;28;20520;-61
2022/03/02 04:57:01;;;;;;;53.10;15.60;;;-0.80;25.50;;;;;;5027039;28;20542;-61
2022/03/02 04:59:28;;;;;;;52.57;15.53;;;-0.80;25.70;;;;;;5028654;28;20500;-61
2022/03/02 05:01:54;;;;;;;50.33;14.37;;;-0.80;25.90;;;;;;5027023;28;20486;-61
2022/03/02 05:04:21;;;;;;;51.77;15.77;;;-0.80;26.10;;;;;;5027229;28;20459;-60
2022/03/02 05:06:48;;;;;;;53.57;15.63;;;-0.80;26.20;;;;;;5023667;28;20467;-62
2022/03/02 05:09:15;;;;;;;55.33;14.40;;;-0.80;26.10;;;;;;5027145;28;20467;-61
2022/03/02 05:11:42;;;;;;;52.80;15.23;;;-0.90;26.40;;;;;;5020233;28;20483;-61
2022/03/02 05:14:10;;;;;;;56.33;14.77;;;-0.80;26.40;;;;;;5023192;28;20478;-61
2022/03/02 05:16:37;;;;;;;54.30;16.20;;;-0.80;26.50;;;;;;5025517;28;20467;-61
2022/03/02 05:19:03;;;;;;;51.90;15.13;;;-0.90;26.50;;;;;;5027380;28;20829;-62
2022/03/02 05:21:30;;;;;;;56.70;16.37;;;-0.80;26.40;;;;;;5026102;28;20451;-61
2022/03/02 05:23:57;;;;;;;50.07;14.77;;;-0.80;26.40;;;;;;5024417;28;20463;-61
2022/03/02 05:26:24;;;;;;;50.60;14.27;;;-0.80;26.30;;;;;;5020339;28;20507;-61
2022/03/02 05:28:51;;;;;;;53.57;15.07;;;-0.80;26.20;;;;;;5024463;28;20502;-61
2022/03/02 05:31:20;;;;;;;51.83;15.50;;;-0.80;26.30;;;;;;5022419;28;20490;-61
2022/03/02 05:33:47;;;;;;;50.60;15.83;;;-0.80;26.30;;;;;;5026328;28;20554;-61
2022/03/02 05:36:14;;;;;;;55.13;16.17;;;-0.80;26.40;;;;;;5021586;28;20462;-61
2022/03/02 05:38:40;;;;;;;54.93;16.70;;;-0.90;26.40;;;;;;5022712;28;21462;-61
2022/03/02 05:41:07;;;;;;;55.20;15.97;;;-0.90;26.40;;;;;;5027361;28;20466;-64
2022/03/02 05:43:34;;;;;;;49.97;16.27;;;-0.90;26.60;;;;;;5028933;28;20463;-58
2022/03/02 05:46:02;;;;;;;54.53;17.30;;;-1.00;26.40;;;;;;5024380;28;20858;-60
2022/03/02 05:48:31;;;;;;;53.93;15.30;;;-0.60;26.70;;;;;;5028423;28;20522;-61
2022/03/02 05:50:58;;;;;;;51.80;16.27;;;-1.00;26.60;;;;;;5028881;28;20483;-60
2022/03/02 05:53:25;;;;;;;50.13;15.30;;;-1.10;26.70;;;;;;5026804;28;20850;-61
2022/03/02 05:55:52;;;;;;;58.70;16.40;;;-1.10;26.60;;;;;;5028101;28;20965;-60
2022/03/02 05:58:19;;;;;;;51.57;15.77;;;-1.10;26.80;;;;;;5027904;28;20498;-60
2022/03/02 06:00:45;;;;;;;55.23;15.33;;;-1.10;26.80;;;;;;5024726;28;20909;-63
2022/03/02 06:03:13;;;;;;;52.37;15.80;;;-1.10;26.80;;;;;;5028238;28;20467;-61
2022/03/02 06:05:41;;;;;;;56.20;16.60;;;-1.10;26.60;;;;;;5029682;28;20542;-61
2022/03/02 06:08:10;;;;;;;51.87;16.57;;;-1.00;26.80;;;;;;5028139;28;20462;-62
2022/03/02 06:10:37;;;;;;;53.90;16.63;;;-1.00;26.80;;;;;;5027781;28;20853;-62
2022/03/02 06:13:05;;;;;;;51.10;15.47;;;-1.00;27.10;;;;;;5028084;28;20845;-61
2022/03/02 06:15:32;;;;;;;57.60;15.30;;;-0.90;26.70;;;;;;5028760;28;21011;-61
2022/03/02 06:18:01;;;;;;;52.37;17.10;;;-0.90;26.80;;;;;;5029062;28;20466;-61
2022/03/02 06:20:28;;;;;;;54.40;15.27;;;-0.80;26.70;;;;;;5027612;28;20486;-61
2022/03/02 06:22:57;;;;;;;55.57;17.50;;;-0.80;26.60;;;;;;5025861;28;20507;-61
2022/03/02 06:25:24;;;;;;;52.93;16.73;;;-0.70;26.70;;;;;;5025041;28;20462;-61
2022/03/02 06:27:51;;;;;;;50.33;15.07;;;-0.70;26.80;;;;;;5027189;28;20458;-62
2022/03/02 06:30:18;;;;;;;50.90;14.87;;;-0.60;26.80;;;;;;5026002;28;20490;-61
2022/03/02 06:32:45;;;;;;;53.97;15.57;;;-0.50;26.70;;;;;;5028510;28;20964;-61
2022/03/02 06:35:12;;;;;;;52.50;14.87;;;-0.40;26.70;;;;;;5029746;28;20459;-59
2022/03/02 06:37:39;;;;;;;49.87;15.53;;;-0.30;26.70;;;;;;5027788;28;20459;-61
2022/03/02 06:40:09;;;;;;;55.23;17.40;;;-0.30;26.30;;;;;;5027970;28;20479;-60
2022/03/02 06:42:57;;;;;;;52.90;15.67;;;-0.20;26.00;;;;;;5025682;28;21009;-59
2022/03/02 06:45:28;;;;;;;53.53;17.17;;;-0.10;25.80;;;;;;5023846;28;20451;-60
2022/03/02 06:48:01;;;;;;;54.13;16.93;;;0.00;25.70;;;;;;5027662;28;20466;-61
2022/03/02 06:50:32;;;;;;;54.10;16.77;;;0.30;25.50;;;;;;5028070;28;20501;-62
2022/03/02 06:53:02;;;;;;;50.80;16.60;;;0.60;25.00;;;;;;5024723;28;21001;-60
2022/03/02 06:55:31;;;;;;;52.57;16.20;;;0.70;24.40;;;;;;5025930;28;20455;-61
2022/03/02 06:58:00;;;;;;;52.63;16.37;;;0.80;23.90;;;;;;5025719;28;20873;-61
2022/03/02 07:00:27;;;;;;;54.90;19.00;;;1.00;23.40;;;;;;5020674;28;20487;-61
2022/03/02 07:03:02;;;;;;;50.03;15.93;;;1.10;23.10;;;;;;5027691;28;20467;-61
2022/03/02 07:05:29;;;;;;;50.73;16.27;;;1.20;22.90;;;;;;5029154;28;20451;-61
2022/03/02 07:07:56;;;;;;;53.70;16.50;;;1.30;22.80;;;;;;5026258;28;20517;-61
2022/03/02 07:10:25;;;;;;;53.97;16.60;;;1.30;22.60;;;;;;5026454;28;20498;-61
2022/03/02 07:12:53;;;;;;;53.20;16.17;;;1.50;22.50;;;;;;5022610;28;20467;-62
2022/03/02 07:15:20;;;;;;;51.43;14.57;;;1.60;22.40;;;;;;5027614;28;20963;-62
2022/03/02 07:17:47;;;;;;;49.43;15.63;;;1.70;22.20;;;;;;5026563;28;20465;-61
2022/03/02 07:20:13;;;;;;;51.70;15.73;;;1.90;21.90;;;;;;5017818;28;20492;-61
2022/03/02 07:22:44;;;;;;;47.50;14.83;;;2.10;21.80;;;;;;5025397;28;20991;-62
2022/03/02 07:25:20;;;;;;;53.60;18.03;;;2.30;21.50;;;;;;5026671;28;20459;-61
2022/03/02 07:27:46;;;;;;;51.40;16.17;;;2.50;21.10;;;;;;5027224;28;20972;-61
2022/03/02 07:30:14;;;;;;;49.13;15.43;;;2.70;20.80;;;;;;5027782;28;20499;-61
2022/03/02 07:32:45;;;;;;;50.33;15.20;;;2.90;20.50;;;;;;5025752;28;20486;-60
2022/03/02 07:35:13;;;;;;;48.87;15.10;;;3.10;20.10;;;;;;5023478;28;20471;-64
2022/03/02 07:37:40;;;;;;;46.70;14.20;;;3.40;20.00;;;;;;5027985;28;20459;-61
2022/03/02 07:40:10;;;;;;;48.77;14.37;;;3.70;19.50;;;;;;5028586;28;20479;-61
2022/03/02 07:42:37;;;;;;;46.80;15.20;;;4.20;18.70;;;;;;5019310;28;20563;-62
2022/03/02 07:45:06;;;;;;;49.40;16.43;;;4.50;17.90;;;;;;5027933;28;20463;-59
2022/03/02 07:47:35;;;;;;;48.37;14.73;;;4.70;17.50;;;;;;5020690;28;20459;-62
2022/03/02 07:50:02;;;;;;;48.27;15.63;;;4.90;17.10;;;;;;5028150;28;20590;-60
2022/03/02 07:52:31;;;;;;;51.00;17.37;;;5.10;16.60;;;;;;5027351;28;20491;-61
2022/03/02 07:55:06;;;;;;;47.50;15.40;;;5.20;16.20;;;;;;5027439;28;20467;-60
2022/03/02 07:57:33;;;;;;;45.83;14.47;;;5.30;16.00;;;;;;5025759;28;20467;-60
2022/03/02 08:00:00;;;;;;;47.53;14.70;;;5.50;15.60;;;;;;5025680;28;20479;-61
2022/03/02 08:02:31;;;;;;;50.70;15.77;;;5.70;15.20;;;;;;5027375;28;20470;-60
2022/03/02 08:05:01;;;;;;;50.87;16.80;;;5.90;14.90;;;;;;5025633;28;20467;-60
2022/03/02 08:07:28;;;;;;;50.70;15.27;;;6.20;14.60;;;;;;5013855;28;20464;-60
2022/03/02 08:09:55;;;;;;;48.90;14.47;;;6.60;14.30;;;;;;5024946;28;20497;-61
2022/03/02 08:12:23;;;;;;;48.50;17.00;;;6.90;13.60;;;;;;5026138;28;20513;-60
2022/03/02 08:14:51;;;;;;;53.40;17.00;;;7.30;13.40;;;;;;5024674;28;20473;-59
2022/03/02 08:17:19;;;;;;;50.40;17.07;;;7.90;12.70;;;;;;5027259;28;20474;-60
2022/03/02 08:19:46;;;;;;;47.30;16.50;;;8.50;11.70;;;;;;5026591;28;20877;-60
2022/03/02 08:22:18;;;;;;;49.20;15.53;;;8.70;11.00;;;;;;5026930;28;20843;-59
2022/03/02 08:24:47;;;;;;;47.27;15.30;;;8.80;10.40;;;;;;5027136;28;20465;-61
2022/03/02 08:27:15;;;;;;;46.53;16.00;;;8.80;10.40;;;;;;5025888;28;20462;-62
2022/03/02 08:29:45;;;;;;;46.63;15.13;;;8.80;10.40;;;;;;5025737;28;20494;-62
2022/03/02 08:32:16;;;;;;;46.43;14.93;;;8.80;10.40;;;;;;5025554;28;20566;-61
2022/03/02 08:34:44;;;;;;;46.27;16.57;;;8.70;10.70;;;;;;5026312;28;20463;-61
2022/03/02 08:37:11;;;;;;;47.50;16.80;;;8.60;10.80;;;;;;5025330;28;20525;-60
2022/03/02 08:39:40;;;;;;;47.93;17.43;;;8.50;11.10;;;;;;5026271;28;20494;-60
2022/03/02 08:42:07;;;;;;;48.73;17.80;;;8.40;11.20;;;;;;5025876;28;20459;-61
2022/03/02 08:44:34;;;;;;;47.33;16.60;;;8.40;11.10;;;;;;5021386;28;20463;-60
2022/03/02 08:47:01;;;;;;;49.90;17.87;;;8.40;10.90;;;;;;5026784;28;20463;-63
2022/03/02 08:49:27;;;;;;;54.73;17.40;;;8.40;11.10;;;;;;5023745;28;20483;-62
2022/03/02 08:51:56;;;;;;;47.57;17.73;;;8.30;11.10;;;;;;5026560;28;20482;-65
2022/03/02 08:54:24;;;;;;;50.20;17.13;;;8.20;11.00;;;;;;5024429;28;20474;-62
2022/03/02 08:56:53;;;;;;;47.43;17.07;;;8.10;11.20;;;;;;5026003;28;20475;-62
2022/03/02 08:59:21;;;;;;;50.90;18.23;;;8.20;11.50;;;;;;5026356;28;20491;-61
2022/03/02 09:01:51;;;;;;;50.83;17.73;;;8.50;11.90;;;;;;5024514;28;20471;-61
2022/03/02 09:04:19;;;;;;;50.13;16.93;;;8.80;11.70;;;;;;5023748;28;20547;-61
2022/03/02 09:06:47;;;;;;;52.10;16.93;;;9.10;11.20;;;;;;5026086;28;20467;-61
2022/03/02 09:09:16;;;;;;;47.47;16.30;;;9.40;10.60;;;;;;5026969;28;20467;-60
2022/03/02 09:11:44;;;;;;;49.30;16.57;;;9.70;10.40;;;;;;5024982;28;20533;-62
2022/03/02 09:14:12;;;;;;;46.13;15.73;;;9.80;10.20;;;;;;5025901;28;20466;-62
2022/03/02 09:16:39;;;;;;;48.60;17.80;;;9.90;10.00;;;;;;5029156;28;20467;-61
2022/03/02 09:19:07;;;;;;;49.00;17.00;;;10.00;9.70;;;;;;5029984;28;20843;-63
2022/03/02 09:21:36;;;;;;;46.13;16.00;;;10.10;9.60;;;;;;5027880;28;20451;-60
2022/03/02 09:24:03;;;;;;;49.07;17.30;;;10.20;9.50;;;;;;5028056;28;20470;-62
2022/03/02 09:26:32;;;;;;;46.97;17.30;;;10.40;9.10;;;;;;5029729;28;20455;-61
2022/03/02 09:29:03;;;;;;;46.47;16.63;;;10.70;8.90;;;;;;5028892;28;20467;-63
2022/03/02 09:31:34;;;;;;;50.73;16.90;;;11.20;8.30;;;;;;5029607;28;20540;-60
2022/03/02 09:34:05;;;;;;;51.23;17.00;;;11.50;7.70;;;;;;5027413;28;20467;-62
2022/03/02 09:36:35;;;;;;;48.63;16.40;;;11.80;7.50;;;;;;5028216;28;20474;-60
2022/03/02 09:39:03;;;;;;;48.50;17.70;;;12.10;7.20;;;;;;5028590;28;20459;-61
2022/03/02 09:41:36;;;;;;;49.30;17.07;;;12.40;6.50;;;;;;5026596;28;20463;-63
2022/03/02 09:44:06;;;;;;;46.80;16.53;;;12.60;6.00;;;;;;5028193;28;20842;-63
2022/03/02 09:46:38;;;;;;;46.57;15.37;;;12.70;5.90;;;;;;5029093;28;20459;-61
2022/03/02 09:49:07;;;;;;;47.23;16.73;;;12.90;5.30;;;;;;5028981;28;20462;-62
2022/03/02 09:51:34;;;;;;;46.17;16.63;;;13.00;5.30;;;;;;5027202;28;20524;-61
2022/03/02 09:54:03;;;;;;;44.03;15.40;;;13.30;4.90;;;;;;5027678;28;20463;-61
2022/03/02 09:56:31;;;;;;;42.73;15.37;;;13.60;5.00;;;;;;5027901;28;20459;-64
2022/03/02 09:59:00;;;;;;;45.20;17.03;;;13.70;4.80;;;;;;5027379;28;20470;-62
2022/03/02 10:01:27;;;;;;;46.20;16.33;;;13.60;4.20;;;;;;5029362;28;21078;-62
2022/03/02 10:03:56;;;;;;;43.50;16.07;;;13.50;4.50;;;;;;5029896;28;20462;-62
2022/03/02 10:06:23;;;;;;;44.50;16.37;;;13.60;4.50;;;;;;5027429;28;20463;-64
2022/03/02 10:08:51;;;;;;;45.17;16.47;;;13.80;4.20;;;;;;5029580;28;21024;-60
2022/03/02 10:11:21;;;;;;;47.97;18.73;;;14.10;4.20;;;;;;5022172;28;20479;-62
2022/03/02 10:13:48;;;;;;;43.33;16.47;;;14.30;3.40;;;;;;5029053;28;20467;-63
2022/03/02 10:16:21;;;;;;;46.07;17.00;;;14.60;3.30;;;;;;5026277;28;20471;-62
2022/03/02 10:18:53;;;;;;;44.60;15.83;;;14.70;3.00;;;;;;5029236;28;20534;-62
2022/03/02 10:21:29;;;;;;;46.47;16.53;;;14.80;2.80;;;;;;5028812;28;20505;-62
2022/03/02 10:23:59;;;;;;;44.67;16.57;;;14.80;2.40;;;;;;5025264;28;20996;-63
2022/03/02 10:26:28;;;;;;;44.13;15.30;;;14.90;2.60;;;;;;5026957;28;20555;-61
2022/03/02 10:29:04;;;;;;;45.80;16.13;;;14.80;2.70;;;;;;5030256;28;20450;-61
2022/03/02 10:31:46;;;;;;;43.33;16.60;;;14.60;2.60;;;;;;5029919;28;20474;-62
2022/03/02 10:34:32;;;;;;;42.57;16.10;;;14.50;2.90;;;;;;5026634;28;20473;-60
2022/03/02 10:37:18;;;;;;;43.97;16.10;;;14.50;3.30;;;;;;5026961;28;20467;-61
2022/03/02 10:39:55;;;;;;;42.50;16.10;;;14.80;3.30;;;;;;5018848;28;21019;-62
2022/03/02 10:42:25;;;;;;;44.80;15.50;;;15.00;2.90;;;;;;5025983;28;20512;-61
2022/03/02 10:45:12;;;;;;;45.03;15.27;;;15.20;2.70;;;;;;5027110;28;20463;-61
2022/03/02 10:47:46;;;;;;;43.40;15.60;;;15.20;2.60;;;;;;5022347;28;20987;-61
2022/03/02 10:50:14;;;;;;;44.03;15.90;;;15.20;1.90;;;;;;5027565;28;20470;-61
2022/03/02 10:52:42;;;;;;;44.70;16.10;;;15.20;1.70;;;;;;5025921;28;20533;-62
2022/03/02 10:55:11;;;;;;;43.13;16.83;;;15.60;1.60;;;;;;5024408;28;20451;-63
2022/03/02 10:57:39;;;;;;;48.30;17.00;;;15.70;1.30;;;;;;5023784;28;20479;-62
2022/03/02 11:00:11;;;;;;;46.57;16.57;;;16.10;1.30;;;;;;5028624;28;20505;-62
2022/03/02 11:02:42;;;;;;;42.27;16.27;;;16.60;1.00;;;;;;5027885;28;20497;-61
2022/03/02 11:05:11;;;;;;;47.07;17.20;;;17.10;1.00;;;;;;5027826;28;20459;-63
2022/03/02 11:07:39;;;;;;;44.83;16.73;;;17.70;1.00;;;;;;5029579;28;20455;-64
2022/03/02 11:10:10;;;;;;;42.47;14.50;;;17.90;1.00;;;;;;5029028;28;20467;-63
2022/03/02 11:12:41;;;;;;;45.23;15.90;;;17.90;1.00;;;;;;5026805;28;20479;-62
2022/03/02 11:15:09;;;;;;;42.40;15.47;;;17.60;1.00;;;;;;5027861;28;20888;-62
2022/03/02 11:17:37;;;;;;;42.63;14.83;;;17.10;1.00;;;;;;5029178;28;21008;-63
2022/03/02 11:20:08;;;;;;;44.47;15.90;;;16.70;1.00;;;;;;5027441;28;21097;-62
2022/03/02 11:22:36;;;;;;;43.07;16.20;;;16.40;1.00;;;;;;5028347;28;20465;-62
2022/03/02 11:25:05;;;;;;;43.10;16.13;;;16.20;1.00;;;;;;5026010;28;20961;-62
2022/03/02 11:27:39;;;;;;;45.43;17.00;;;16.00;1.00;;;;;;5028005;28;20466;-61
2022/03/02 11:30:10;;;;;;;43.97;14.90;;;15.90;1.00;;;;;;5028253;28;20481;-62
2022/03/02 11:32:40;;;;;;;42.73;15.30;;;15.80;1.00;;;;;;5030189;28;20467;-62
2022/03/02 11:35:10;;;;;;;43.03;14.63;;;15.70;1.00;;;;;;5033616;28;21119;-62
2022/03/02 11:37:38;;;;;;;41.67;14.60;;;15.50;1.00;;;;;;5028444;28;20455;-63
2022/03/02 11:40:08;;;;;;;41.67;14.63;;;15.20;1.00;;;;;;5027629;28;20494;-61
2022/03/02 11:42:38;;;;;;;45.67;15.83;;;15.00;1.30;;;;;;5027375;28;20510;-63
2022/03/02 11:45:08;;;;;;;44.13;14.87;;;14.70;1.10;;;;;;5027134;28;20455;-63
2022/03/02 11:47:38;;;;;;;41.67;14.80;;;14.40;1.60;;;;;;5028590;28;20490;-63
2022/03/02 11:50:08;;;;;;;45.27;14.30;;;14.30;2.00;;;;;;5026153;28;20483;-64
2022/03/02 11:52:36;;;;;;;42.83;15.83;;;14.00;2.00;;;;;;5024201;28;20478;-61
2022/03/02 11:55:06;;;;;;;41.83;13.13;;;13.80;2.30;;;;;;5025756;28;20470;-61
2022/03/02 11:57:39;;;;;;;49.57;15.00;;;13.70;2.70;;;;;;5026605;28;20459;-62
2022/03/02 12:00:12;;;;;;;43.00;14.77;;;13.60;3.00;;;;;;5027174;28;20954;-61
2022/03/02 12:02:45;;;;;;;42.00;15.10;;;13.70;3.20;;;;;;5024355;28;20498;-62
2022/03/02 12:05:13;;;;;;;42.83;15.10;;;13.70;2.90;;;;;;5026070;28;20467;-62
2022/03/02 12:07:42;;;;;;;41.90;14.23;;;13.60;2.60;;;;;;5027261;28;20474;-64
2022/03/02 12:10:17;;;;;;;42.50;13.83;;;13.50;2.90;;;;;;5024094;28;20483;-63
2022/03/02 12:12:45;;;;;;;43.60;14.20;;;13.40;2.90;;;;;;5025295;28;21031;-59
2022/03/02 12:15:12;;;;;;;41.33;13.77;;;13.30;2.90;;;;;;5026262;28;20459;-64
2022/03/02 12:17:39;;;;;;;42.73;13.40;;;13.30;2.90;;;;;;5026405;28;20493;-63
2022/03/02 12:20:09;;;;;;;41.93;14.63;;;13.20;3.00;;;;;;5028403;28;20485;-61
2022/03/02 12:22:37;;;;;;;42.93;13.93;;;13.20;2.80;;;;;;5027372;28;20455;-63
2022/03/02 12:25:06;;;;;;;42.43;14.27;;;13.20;2.80;;;;;;5025727;28;20482;-64
2022/03/02 12:27:32;;;;;;;45.27;15.30;;;13.00;2.70;;;;;;5025739;28;20467;-62
2022/03/02 12:30:04;;;;;;;43.10;15.07;;;12.80;2.90;;;;;;5026483;28;20506;-61
2022/03/02 12:32:32;;;;;;;44.37;14.50;;;12.60;3.20;;;;;;5023576;28;20490;-61
2022/03/02 12:35:01;;;;;;;41.70;14.73;;;12.30;3.30;;;;;;5026273;28;20481;-61
2022/03/02 12:37:29;;;;;;;44.80;15.47;;;12.10;3.60;;;;;;5016280;28;20463;-63
2022/03/02 12:39:56;;;;;;;46.50;15.27;;;11.90;3.80;;;;;;5022566;28;20502;-63